Airfield :
LOGIN :

Register | Disclaimer

   EN    FR    IT 

 










Legend :    VFR   Marginal VFR   IFR   Intensive IFR   Very Intensive IFR
Visi :
Ceiling :
>= 8 km
>= 3000ft
5 to 8 km
1000 to 3000 ft
1500m to 5 km
500 to 1000 ft
800 to 1500m
200 to 500 ft
< 800m
< 200 ft
Symbols :   Thunderstorms  Fog  Heavy snow  Heavy precipitations  Wind > 20 kt
SIGMETs :     Misc.  Thunderstorms  Icing  Turbulence  Mountain Waves  Volcanic Ashes







- Airport Elevation : 896 ft


LOAN - Wiener Neustadt East

EXPIRED METARs :
  • 251800Z 05002KT 30KM SCT040CU SCT300CI
  • 251700Z 06004KT 40KM SCT040CU SCT300CI

TAF TAF LOAN
Valid from the 25 at 12:00 until the 25 at 21:00 UTC


251125Z 2512/2521 12005KT 9999 SCT040 BKN300
TEMPO 2512/2519 30008KT
No reported NOTAMs for that airfield.
1 SIGMET reported for the Wien FIR (LOVV) :
 
Squall lined thunderstorms
LOVV SIGMET 1 VALID 251953/252050 LOWW
LOVV WIEN FIR SQL TS OBS WI N4810 E01710 - N4745 E01710 - N4725 E01605 - N4745 E01540 - N4810 E01620 - N4810 E01710 TOP FL350 STNR NC=



MET'MAP, your aeronautical weather chart ! - Copyright ORBIFLY December 2007 - Disclaimer

ORBIFLY MET'MAP TEAM :

Programming & Development : Alexandra Zaïnal
Concept & Development : Baudouin d'Aumeries
Co-Development & Prog : Marc-Olivier Méhu
Technical & hardware support : Manuel Goepfert

Contact : metmap@orbifly.com




SOURCES & CREDITS :

   NOAA